Pagrindinis puslapis
METAR-TAF:

METAR-TAF

Oro uostai :

Bermuda, Bermuda

platuma: 32-22N, ilguma: 064-41W, Aukštis: 6 m

Dabartinis oras

Ataskaita buvo paskelbta 1 valandą ir 4 minutes, ne 23:55 UTC
Vėjas 7 kt iš Šiaurės, svyruoja nuo Vakarų/Šiaurės Vakarų ir Šiaurės/Šiaurės Rytų
Temperatūra 24°C
Drėgmė 69%
Slėgis 1014 hPa
Matomumas 10 km arba daugiau
Mažai debesys ne aukštis 2800 ft
Išsisklaidę debesys ne aukštis 12000 ft
Su prošvaistėmis ne aukštis 30000 ft

METAR: TXKF 192355Z 01007KT 300V030 9999 FEW028 SCT120 BKN300 24/18 Q1014

Laikas: 21:59 (00:59 UTC)

Prognozė

Ataskaita buvo paskelbta 1 valandą ir 24 minutes, ne 23:35 UTC
Prognozė galioja nuo 20 metu 00 UTC su 20 metu 24 UTC
Vėjas 8 kt iš Šiaurės
Matomumas 10 km arba daugiau
Mažai debesys ne aukštis 3000 ft
Su prošvaistėmis ne aukštis 13000 ft

TAF: TXKF 192335Z 2000/2024 36008KT 9999 FEW030 BKN130

Orai ataskaitas ir orų prognozės (METAR, TAF).

turimą stotys yra geltonos ir raudonos taškus žemėlapyje.

Perkelti pele per norėdami pamatyti stoties vardą.

Tada spustelėkite, norėdami matyti oro stebėjimo ir prognozės.

Norėdami pakeisti žemėlapį: spustelėkite ant žalios mygtukų su juodo kryžiaus žemyn,; žalią mygtuką su brūkšneliu, jei norite nutolinti; arba žalių rodyklių gretimoms žemėlapius.


METAR-TAF: